Airfield :
LOGIN :

Register | Disclaimer

   EN    FR    IT 

 










Legend :    VFR   Marginal VFR   IFR   Intensive IFR   Very Intensive IFR
Visi :
Ceiling :
>= 8 km
>= 3000ft
5 to 8 km
1000 to 3000 ft
1500m to 5 km
500 to 1000 ft
800 to 1500m
200 to 500 ft
< 800m
< 200 ft
Symbols :   Thunderstorms  Fog  Heavy snow  Heavy precipitations  Wind > 20 kt
SIGMETs :     Misc.  Thunderstorms  Icing  Turbulence  Mountain Waves  Volcanic Ashes







- Airport Elevation : 256 ft
- IATA code : CFR
- Download approach charts


LFRK - Caen

CURRENT METAR :
  • 170800Z AUTO 10009KT 4600 BR OVC006 05/05 Q1023 BECMG 9999 NSW SCT010

EXPIRED METARs :
  • 170730Z AUTO 10009KT 4100 BR OVC005 05/05 Q1023 BECMG 9999 NSW SCT010
  • 170700Z AUTO 10008KT 5000 BR OVC004 05/05 Q1023 TEMPO 0600 FG VV///
  • 170630Z AUTO 11010KT 5000 BR VV/// 05/05 Q1023 TEMPO 0600 FG BECMG BKN005
  • 170600Z AUTO 09010KT 1000 R31/1100U BR VV/// 05/05 Q1022 TEMPO 0600 FG
  • 170530Z AUTO 11009KT 0750 0700 R31/0700N FG VV/// 06/06 Q1022

TAF TAF LFRK
Valid from the 17 at 06:00 until the 17 at 15:00 UTC


170500Z 1706/1715 10010KT 1500 BR VV///
TEMPO 1706/1708 0600 FG
BECMG 1708/1709 4000 BR BKN005
BECMG 1709/1711 9999 NSW SCT010
BECMG 1711/1713 CAVOK
Met : +33 2 31 26 68 11
No reported NOTAMs for that airfield.



MET'MAP, your aeronautical weather chart ! - Copyright ORBIFLY December 2007 - Disclaimer

ORBIFLY MET'MAP TEAM :

Programming & Development : Alexandra Zaïnal
Concept & Development : Baudouin d'Aumeries
Co-Development & Prog : Marc-Olivier Méhu
Technical & hardware support : Manuel Goepfert

Contact : metmap@orbifly.com




SOURCES & CREDITS :

   NOAA